Terminal Aerodrome Forecast
Issued by NWS Memphis, TN

Home | Current Version | Previous Version | Text Only | Print | Product List | Glossary On
Versions: 1 2 3 4 5 6 7 8 9 10 11 12 13 14
000
FTUS44 KMEG 211130
TAFJBR
TAF
KJBR 211130Z 2112/2212 13004KT P6SM VCSH BKN045 OVC150
     FM211500 16010KT P6SM VCSH BKN045 BKN100
     FM211900 17011G17KT P6SM VCSH BKN045 BKN070
     FM212300 14010KT P6SM SCT050 BKN120
     FM220600 18012G18KT P6SM VCSH BKN040 BKN080
      TEMPO 2211/2212 6SM -SHRA OVC025=

USA.gov is the U.S. government's official web portal to all federal, state and local government web resources and services.